Orbital elements of FENGYUN 1C DEB
| Launched | 9 May 1999 |
| Flight ended | – |
| Launch site | Taiyuan Space Center, PRC |
| Owner | People's Republic of China |
| NORAD ID | 33640 |
| Date fetched |
Epoch osculation |
Inc. [°] |
Ecc. | RA asc node [hr] |
Arg Peri. [°] |
Mean anom [°] |
Mean motion [rev/day] |
Abs. mag |
| Date fetched |
Epoch osculation |
Inc. [°] |
Ecc. | RA asc node [hr] |
Arg Peri. [°] |
Mean anom [°] |
Mean motion [rev/day] |
Abs. mag |
| 2026 May 08 17:57 | 2026 May 03 19:27:08 | 98.8588 | 0.00910 | 5.1846 | 94.6931 | 266.4661 | 14.46554 | – |
| 2026 May 07 17:58 | 2026 May 03 19:27:08 | 98.8588 | 0.00910 | 5.1846 | 94.6931 | 266.4661 | 14.46554 | – |
| 2026 May 06 17:57 | 2026 May 03 19:27:08 | 98.8588 | 0.00910 | 5.1846 | 94.6931 | 266.4661 | 14.46554 | – |
| 2026 May 05 17:57 | 2026 May 03 19:27:08 | 98.8588 | 0.00910 | 5.1846 | 94.6931 | 266.4661 | 14.46554 | – |
| 2026 May 04 17:57 | 2026 Apr 27 07:24:14 | 98.8580 | 0.00908 | 4.7315 | 113.9192 | 266.4661 | 14.46554 | – |
| 2026 May 03 17:57 | 2026 Apr 27 07:24:14 | 98.8580 | 0.00908 | 4.7315 | 113.9192 | 266.4661 | 14.46554 | – |
| 2026 May 02 17:57 | 2026 Apr 27 07:24:14 | 98.8580 | 0.00908 | 4.7315 | 113.9192 | 266.4661 | 14.46554 | – |
| 2026 May 01 17:56 | 2026 Apr 27 07:24:14 | 98.8580 | 0.00908 | 4.7315 | 113.9192 | 266.4661 | 14.46554 | – |
| 2026 Apr 30 17:56 | 2026 Apr 27 07:24:14 | 98.8580 | 0.00908 | 4.7315 | 113.9192 | 266.4661 | 14.46554 | – |
| 2026 Apr 29 17:57 | 2026 Apr 23 07:07:02 | 98.8576 | 0.00906 | 4.4520 | 125.8203 | 266.4661 | 14.46554 | – |
| 2026 Apr 28 17:56 | 2026 Apr 23 07:07:02 | 98.8576 | 0.00906 | 4.4520 | 125.8203 | 266.4661 | 14.46554 | – |
| 2026 Apr 27 17:58 | 2026 Apr 23 07:07:02 | 98.8576 | 0.00906 | 4.4520 | 125.8203 | 266.4661 | 14.46554 | – |
| 2026 Apr 26 17:58 | 2026 Apr 23 07:07:02 | 98.8576 | 0.00906 | 4.4520 | 125.8203 | 266.4661 | 14.46554 | – |
| 2026 Apr 25 17:58 | 2026 Apr 23 07:07:02 | 98.8576 | 0.00906 | 4.4520 | 125.8203 | 266.4661 | 14.46554 | – |
| 2026 Apr 24 17:59 | 2026 Apr 23 07:07:02 | 98.8576 | 0.00906 | 4.4520 | 125.8203 | 266.4661 | 14.46554 | – |
| 2026 Apr 23 17:57 | 2026 Apr 18 07:35:17 | 98.8573 | 0.00904 | 4.1050 | 140.6094 | 266.4661 | 14.46554 | – |
| 2026 Apr 22 17:57 | 2026 Apr 18 07:35:17 | 98.8573 | 0.00904 | 4.1050 | 140.6094 | 266.4661 | 14.46554 | – |
| 2026 Apr 21 17:57 | 2026 Apr 18 07:35:17 | 98.8573 | 0.00904 | 4.1050 | 140.6094 | 266.4661 | 14.46554 | – |
| 2026 Apr 20 17:57 | 2026 Apr 18 07:35:17 | 98.8573 | 0.00904 | 4.1050 | 140.6094 | 266.4661 | 14.46554 | – |
| 2026 Apr 19 17:58 | 2026 Apr 18 07:35:17 | 98.8573 | 0.00904 | 4.1050 | 140.6094 | 266.4661 | 14.46554 | – |
| 2026 Apr 18 17:56 | 2026 Apr 11 07:54:48 | 98.8563 | 0.00899 | 3.6183 | 161.4706 | 266.4661 | 14.46554 | – |
| 2026 Apr 16 17:57 | 2026 Apr 11 07:54:48 | 98.8563 | 0.00899 | 3.6183 | 161.4706 | 266.4661 | 14.46554 | – |
| 2026 Apr 14 17:57 | 2026 Apr 11 07:54:48 | 98.8563 | 0.00899 | 3.6183 | 161.4706 | 266.4661 | 14.46554 | – |
| 2026 Apr 13 17:57 | 2026 Apr 11 07:54:48 | 98.8563 | 0.00899 | 3.6183 | 161.4706 | 266.4661 | 14.46554 | – |
| 2026 Apr 12 17:57 | 2026 Apr 07 07:37:27 | 98.8559 | 0.00897 | 3.3388 | 173.4866 | 266.4661 | 14.46554 | – |
| 2026 Apr 11 17:57 | 2026 Apr 07 07:37:27 | 98.8559 | 0.00897 | 3.3388 | 173.4866 | 266.4661 | 14.46554 | – |